Portada
METAR-TAF:

METAR-TAF

Aeropuertos :

Base Naval de Rota

Rota, España

latitud: 36-39N, longitud: 006-21W, altitud: 26 m

Observación

El informe se hizo hace 28 minutos, a las 02:30 UTC
Viento 5 kt del noroeste, variando entre oeste y norte-noroeste
Temperatura 22°C
Humedad 73%
Presión 1015 hPa
Visibilidad 10 km o más
sin nubes por debajo de 1500 m y sin presencia de cumulonimbus.

METAR: LERT 310230Z 31005KT 270V330 CAVOK 22/17 Q1015 NOSIG

Hora: 04:58 (02:58 UTC)

Pronóstico

El informe se hizo hace 58 minutos, a las 02:00 UTC
Pronóstico válido del 31 a las 03 UTC al 01 a las 03 UTC
Viento 12 kt del noroeste
Visibilidad 10 km o más
sin nubes por debajo de 1500 m y sin presencia de cumulonimbus.
Probabilidad 40% :
Temporalmente
del 31 a las 13 UTC al 31 a las 17 UTC
Viento 15 kt del oeste con ráfagas de 25 kt

TAF: LERT 310200Z 3103/0103 31012KT CAVOK TX27/3113Z TN21/3106Z PROB40 TEMPO 3113/3117 28015G25KT

Observaciones y pronósticos meteorológicos de más de 4000 aeropuertos (mensajes METAR y TAF).

Los puntos amarillos y rojos representan las estaciones disponibles.

Ponga el ratón en el punto deseado para ver el nombre de la estación.

Haga clic para ver las observaciones y los pronósticos meteorológicos.

Para cambiar el mapa : haga clic en los botones verdes con una cruz de color negro para hacer un zoom, en el botón verde con un guión para alejar o en las flechas verdes para mapas adyacentes.


METAR-TAF: